sensor_id;sensor_type;location;lat;lon;timestamp;temperature;humidity
35206;DHT22;46555;45.620;13.796;2022-07-06T00:01:46;26.80;98.80
35206;DHT22;46555;45.620;13.796;2022-07-06T00:04:12;26.70;98.90
35206;DHT22;46555;45.620;13.796;2022-07-06T00:06:38;26.80;99.00
35206;DHT22;46555;45.620;13.796;2022-07-06T00:09:04;26.70;99.10
35206;DHT22;46555;45.620;13.796;2022-07-06T00:11:30;26.70;99.20
35206;DHT22;46555;45.620;13.796;2022-07-06T00:13:56;26.60;99.40
35206;DHT22;46555;45.620;13.796;2022-07-06T00:16:23;26.60;99.20
35206;DHT22;46555;45.620;13.796;2022-07-06T00:18:48;26.60;99.30
35206;DHT22;46555;45.620;13.796;2022-07-06T00:21:15;26.60;99.20
35206;DHT22;46555;45.620;13.796;2022-07-06T00:23:41;26.60;99.30
35206;DHT22;46555;45.620;13.796;2022-07-06T00:26:07;26.70;99.90
35206;DHT22;46555;45.620;13.796;2022-07-06T00:28:32;26.60;99.90
35206;DHT22;46555;45.620;13.796;2022-07-06T00:30:58;26.50;99.90
35206;DHT22;46555;45.620;13.796;2022-07-06T00:33:24;26.50;99.90
35206;DHT22;46555;45.620;13.796;2022-07-06T00:35:50;26.30;99.90
35206;DHT22;46555;45.620;13.796;2022-07-06T00:38:16;26.30;99.90
35206;DHT22;46555;45.620;13.796;2022-07-06T00:40:42;26.20;99.90
35206;DHT22;46555;45.620;13.796;2022-07-06T00:43:07;26.20;99.90
35206;DHT22;46555;45.620;13.796;2022-07-06T00:45:33;26.20;99.90
35206;DHT22;46555;45.620;13.796;2022-07-06T00:47:59;26.20;99.90
35206;DHT22;46555;45.620;13.796;2022-07-06T00:50:25;26.20;99.90
35206;DHT22;46555;45.620;13.796;2022-07-06T00:53:01;26.10;99.90
35206;DHT22;46555;45.620;13.796;2022-07-06T00:55:29;26.10;99.90
35206;DHT22;46555;45.620;13.796;2022-07-06T00:57:56;26.10;99.90
35206;DHT22;46555;45.620;13.796;2022-07-06T01:00:24;26.10;99.90
35206;DHT22;46555;45.620;13.796;2022-07-06T01:02:51;26.10;99.90
35206;DHT22;46555;45.620;13.796;2022-07-06T01:05:17;26.10;99.90
35206;DHT22;46555;45.620;13.796;2022-07-06T01:07:45;26.00;99.90
35206;DHT22;46555;45.620;13.796;2022-07-06T01:10:12;26.00;99.90
35206;DHT22;46555;45.620;13.796;2022-07-06T01:12:41;25.90;99.90
35206;DHT22;46555;45.620;13.796;2022-07-06T01:15:10;25.90;99.90
35206;DHT22;46555;45.620;13.796;2022-07-06T01:17:37;25.70;99.90
35206;DHT22;46555;45.620;13.796;2022-07-06T01:22:34;25.40;99.90
35206;DHT22;46555;45.620;13.796;2022-07-06T01:24:59;25.40;99.90
35206;DHT22;46555;45.620;13.796;2022-07-06T01:27:25;25.40;99.90
35206;DHT22;46555;45.620;13.796;2022-07-06T01:29:51;25.30;99.90
35206;DHT22;46555;45.620;13.796;2022-07-06T01:32:16;25.30;99.90
35206;DHT22;46555;45.620;13.796;2022-07-06T01:34:42;25.20;99.90
35206;DHT22;46555;45.620;13.796;2022-07-06T01:37:08;25.30;99.90
35206;DHT22;46555;45.620;13.796;2022-07-06T01:39:33;25.30;99.90
35206;DHT22;46555;45.620;13.796;2022-07-06T01:41:59;25.30;99.90
35206;DHT22;46555;45.620;13.796;2022-07-06T01:44:25;25.30;99.90
35206;DHT22;46555;45.620;13.796;2022-07-06T01:46:50;25.20;99.90
35206;DHT22;46555;45.620;13.796;2022-07-06T01:49:16;25.20;99.90
35206;DHT22;46555;45.620;13.796;2022-07-06T01:51:42;25.30;99.90
35206;DHT22;46555;45.620;13.796;2022-07-06T01:54:07;25.30;99.90
35206;DHT22;46555;45.620;13.796;2022-07-06T01:56:33;25.40;99.90
35206;DHT22;46555;45.620;13.796;2022-07-06T01:58:59;25.40;99.90
35206;DHT22;46555;45.620;13.796;2022-07-06T02:01:24;25.40;99.90
35206;DHT22;46555;45.620;13.796;2022-07-06T02:03:50;25.40;99.90
35206;DHT22;46555;45.620;13.796;2022-07-06T02:06:16;25.40;99.90
35206;DHT22;46555;45.620;13.796;2022-07-06T02:08:42;25.50;99.90
35206;DHT22;46555;45.620;13.796;2022-07-06T02:11:09;25.50;99.90
35206;DHT22;46555;45.620;13.796;2022-07-06T02:13:35;25.50;99.90
35206;DHT22;46555;45.620;13.796;2022-07-06T02:16:01;25.50;99.90
35206;DHT22;46555;45.620;13.796;2022-07-06T02:18:28;25.50;99.90
35206;DHT22;46555;45.620;13.796;2022-07-06T02:20:53;25.50;99.90
35206;DHT22;46555;45.620;13.796;2022-07-06T02:23:19;25.50;99.90
35206;DHT22;46555;45.620;13.796;2022-07-06T02:25:45;25.50;99.90
35206;DHT22;46555;45.620;13.796;2022-07-06T02:28:10;25.60;99.90
35206;DHT22;46555;45.620;13.796;2022-07-06T02:30:36;25.50;99.90
35206;DHT22;46555;45.620;13.796;2022-07-06T02:33:02;25.50;99.90
35206;DHT22;46555;45.620;13.796;2022-07-06T02:35:28;25.50;99.90
35206;DHT22;46555;45.620;13.796;2022-07-06T02:37:54;25.50;99.90
35206;DHT22;46555;45.620;13.796;2022-07-06T02:40:19;25.50;99.90
35206;DHT22;46555;45.620;13.796;2022-07-06T02:42:45;25.60;99.90
35206;DHT22;46555;45.620;13.796;2022-07-06T02:45:11;25.60;99.90
35206;DHT22;46555;45.620;13.796;2022-07-06T02:47:36;25.60;99.90
35206;DHT22;46555;45.620;13.796;2022-07-06T02:50:04;25.50;99.90
35206;DHT22;46555;45.620;13.796;2022-07-06T02:52:30;25.50;99.90
35206;DHT22;46555;45.620;13.796;2022-07-06T02:54:55;25.50;99.90
35206;DHT22;46555;45.620;13.796;2022-07-06T02:57:21;25.40;99.90
35206;DHT22;46555;45.620;13.796;2022-07-06T02:59:47;25.40;99.90
35206;DHT22;46555;45.620;13.796;2022-07-06T03:02:15;25.40;99.90
35206;DHT22;46555;45.620;13.796;2022-07-06T03:04:41;25.40;99.90
35206;DHT22;46555;45.620;13.796;2022-07-06T03:07:07;25.40;99.90
35206;DHT22;46555;45.620;13.796;2022-07-06T03:09:33;25.40;99.90
35206;DHT22;46555;45.620;13.796;2022-07-06T03:11:59;25.30;99.90
35206;DHT22;46555;45.620;13.796;2022-07-06T03:14:25;25.30;99.90
35206;DHT22;46555;45.620;13.796;2022-07-06T03:16:51;25.30;99.90
35206;DHT22;46555;45.620;13.796;2022-07-06T03:19:17;25.30;99.90
35206;DHT22;46555;45.620;13.796;2022-07-06T03:21:43;25.30;99.90
35206;DHT22;46555;45.620;13.796;2022-07-06T03:24:08;25.20;99.90
35206;DHT22;46555;45.620;13.796;2022-07-06T03:26:34;25.20;99.90
35206;DHT22;46555;45.620;13.796;2022-07-06T03:29:00;25.20;99.90
35206;DHT22;46555;45.620;13.796;2022-07-06T03:31:25;25.20;99.90
35206;DHT22;46555;45.620;13.796;2022-07-06T03:33:52;25.10;99.90
35206;DHT22;46555;45.620;13.796;2022-07-06T03:36:17;25.10;99.90
35206;DHT22;46555;45.620;13.796;2022-07-06T03:38:43;25.10;99.90
35206;DHT22;46555;45.620;13.796;2022-07-06T03:41:09;25.00;99.90
35206;DHT22;46555;45.620;13.796;2022-07-06T03:43:35;25.10;99.90
35206;DHT22;46555;45.620;13.796;2022-07-06T03:46:00;25.10;99.90
35206;DHT22;46555;45.620;13.796;2022-07-06T03:48:26;25.10;99.90
35206;DHT22;46555;45.620;13.796;2022-07-06T03:50:52;25.10;99.90
35206;DHT22;46555;45.620;13.796;2022-07-06T03:53:18;25.10;99.90
35206;DHT22;46555;45.620;13.796;2022-07-06T03:55:44;25.10;99.90
35206;DHT22;46555;45.620;13.796;2022-07-06T03:58:29;25.10;99.90
35206;DHT22;46555;45.620;13.796;2022-07-06T04:00:55;25.10;99.90
35206;DHT22;46555;45.620;13.796;2022-07-06T04:03:21;25.10;99.90
35206;DHT22;46555;45.620;13.796;2022-07-06T04:05:46;25.10;99.90
35206;DHT22;46555;45.620;13.796;2022-07-06T04:08:12;25.10;99.90
35206;DHT22;46555;45.620;13.796;2022-07-06T04:10:38;25.00;99.90
35206;DHT22;46555;45.620;13.796;2022-07-06T04:13:03;25.00;99.90
35206;DHT22;46555;45.620;13.796;2022-07-06T04:15:29;25.00;99.90
35206;DHT22;46555;45.620;13.796;2022-07-06T04:17:55;25.00;99.90
35206;DHT22;46555;45.620;13.796;2022-07-06T04:20:22;25.00;99.90
35206;DHT22;46555;45.620;13.796;2022-07-06T04:22:48;25.10;99.90
35206;DHT22;46555;45.620;13.796;2022-07-06T04:25:14;25.10;99.90
35206;DHT22;46555;45.620;13.796;2022-07-06T04:27:40;25.10;99.90
35206;DHT22;46555;45.620;13.796;2022-07-06T04:30:07;25.20;99.90
35206;DHT22;46555;45.620;13.796;2022-07-06T04:32:34;25.20;99.90
35206;DHT22;46555;45.620;13.796;2022-07-06T04:35:00;25.20;99.90
35206;DHT22;46555;45.620;13.796;2022-07-06T04:37:26;25.10;99.90
35206;DHT22;46555;45.620;13.796;2022-07-06T04:39:51;25.10;99.90
35206;DHT22;46555;45.620;13.796;2022-07-06T04:42:17;25.00;99.90
35206;DHT22;46555;45.620;13.796;2022-07-06T04:44:43;25.00;99.90
35206;DHT22;46555;45.620;13.796;2022-07-06T04:47:09;24.90;99.90
35206;DHT22;46555;45.620;13.796;2022-07-06T04:49:34;25.00;99.90
35206;DHT22;46555;45.620;13.796;2022-07-06T04:52:00;24.90;99.90
35206;DHT22;46555;45.620;13.796;2022-07-06T04:54:26;24.90;99.90
35206;DHT22;46555;45.620;13.796;2022-07-06T04:56:51;24.90;99.90
35206;DHT22;46555;45.620;13.796;2022-07-06T04:59:17;24.80;99.90
35206;DHT22;46555;45.620;13.796;2022-07-06T05:01:43;24.80;99.90
35206;DHT22;46555;45.620;13.796;2022-07-06T05:04:09;24.80;99.90
35206;DHT22;46555;45.620;13.796;2022-07-06T05:06:35;24.90;99.90
35206;DHT22;46555;45.620;13.796;2022-07-06T05:09:01;24.90;99.90
35206;DHT22;46555;45.620;13.796;2022-07-06T05:11:27;24.90;99.90
35206;DHT22;46555;45.620;13.796;2022-07-06T05:13:53;24.90;99.90
35206;DHT22;46555;45.620;13.796;2022-07-06T05:16:20;24.90;99.90
35206;DHT22;46555;45.620;13.796;2022-07-06T05:18:46;25.00;99.90
35206;DHT22;46555;45.620;13.796;2022-07-06T05:21:11;25.00;99.90
35206;DHT22;46555;45.620;13.796;2022-07-06T05:23:37;25.10;99.90
35206;DHT22;46555;45.620;13.796;2022-07-06T05:26:03;25.20;99.90
35206;DHT22;46555;45.620;13.796;2022-07-06T05:28:28;25.30;99.90
35206;DHT22;46555;45.620;13.796;2022-07-06T05:30:54;25.30;99.90
35206;DHT22;46555;45.620;13.796;2022-07-06T05:33:20;25.40;99.90
35206;DHT22;46555;45.620;13.796;2022-07-06T05:35:46;25.40;99.90
35206;DHT22;46555;45.620;13.796;2022-07-06T05:38:11;25.60;99.90
35206;DHT22;46555;45.620;13.796;2022-07-06T05:40:37;25.70;99.90
35206;DHT22;46555;45.620;13.796;2022-07-06T05:43:03;25.80;99.70
35206;DHT22;46555;45.620;13.796;2022-07-06T05:45:29;25.90;98.10
35206;DHT22;46555;45.620;13.796;2022-07-06T05:47:55;26.00;99.90
35206;DHT22;46555;45.620;13.796;2022-07-06T05:50:39;26.10;99.40
35206;DHT22;46555;45.620;13.796;2022-07-06T05:53:05;26.10;99.60
35206;DHT22;46555;45.620;13.796;2022-07-06T05:55:32;26.20;98.50
35206;DHT22;46555;45.620;13.796;2022-07-06T05:57:57;26.20;97.90
35206;DHT22;46555;45.620;13.796;2022-07-06T06:00:24;26.20;96.20
35206;DHT22;46555;45.620;13.796;2022-07-06T06:02:50;26.20;95.80
35206;DHT22;46555;45.620;13.796;2022-07-06T06:05:17;26.30;96.10
35206;DHT22;46555;45.620;13.796;2022-07-06T06:07:43;26.30;96.00
35206;DHT22;46555;45.620;13.796;2022-07-06T06:10:11;26.30;97.00
35206;DHT22;46555;45.620;13.796;2022-07-06T06:12:38;26.30;97.10
35206;DHT22;46555;45.620;13.796;2022-07-06T06:15:04;26.30;98.20
35206;DHT22;46555;45.620;13.796;2022-07-06T06:17:31;26.40;97.50
35206;DHT22;46555;45.620;13.796;2022-07-06T06:19:57;26.40;97.80
35206;DHT22;46555;45.620;13.796;2022-07-06T06:22:23;26.50;97.60
35206;DHT22;46555;45.620;13.796;2022-07-06T06:24:49;26.60;96.80
35206;DHT22;46555;45.620;13.796;2022-07-06T06:27:15;26.60;96.80
35206;DHT22;46555;45.620;13.796;2022-07-06T06:29:41;26.70;94.00
35206;DHT22;46555;45.620;13.796;2022-07-06T06:32:07;26.80;95.40
35206;DHT22;46555;45.620;13.796;2022-07-06T06:34:33;26.80;93.10
35206;DHT22;46555;45.620;13.796;2022-07-06T06:36:59;27.00;92.80
35206;DHT22;46555;45.620;13.796;2022-07-06T06:39:25;27.00;93.20
35206;DHT22;46555;45.620;13.796;2022-07-06T06:41:51;27.10;92.10
35206;DHT22;46555;45.620;13.796;2022-07-06T06:44:16;27.20;92.10
35206;DHT22;46555;45.620;13.796;2022-07-06T06:46:43;27.20;93.60
35206;DHT22;46555;45.620;13.796;2022-07-06T06:49:09;27.30;92.50
35206;DHT22;46555;45.620;13.796;2022-07-06T06:51:35;27.30;91.30
35206;DHT22;46555;45.620;13.796;2022-07-06T06:54:03;27.40;91.30
35206;DHT22;46555;45.620;13.796;2022-07-06T06:56:28;27.50;90.70
35206;DHT22;46555;45.620;13.796;2022-07-06T06:58:54;27.60;90.70
35206;DHT22;46555;45.620;13.796;2022-07-06T07:01:20;27.60;88.60
35206;DHT22;46555;45.620;13.796;2022-07-06T07:03:46;27.70;90.10
35206;DHT22;46555;45.620;13.796;2022-07-06T07:06:11;27.80;90.30
35206;DHT22;46555;45.620;13.796;2022-07-06T07:08:37;27.90;87.10
35206;DHT22;46555;45.620;13.796;2022-07-06T07:11:03;27.90;85.50
35206;DHT22;46555;45.620;13.796;2022-07-06T07:13:29;28.00;84.70
35206;DHT22;46555;45.620;13.796;2022-07-06T07:15:54;28.10;84.90
35206;DHT22;46555;45.620;13.796;2022-07-06T07:18:20;28.10;83.90
35206;DHT22;46555;45.620;13.796;2022-07-06T07:20:46;28.20;83.70
35206;DHT22;46555;45.620;13.796;2022-07-06T07:23:11;28.20;82.80
35206;DHT22;46555;45.620;13.796;2022-07-06T07:25:37;28.20;83.50
35206;DHT22;46555;45.620;13.796;2022-07-06T07:28:05;28.30;83.10
35206;DHT22;46555;45.620;13.796;2022-07-06T07:30:31;28.30;82.60
35206;DHT22;46555;45.620;13.796;2022-07-06T07:32:56;28.30;81.40
35206;DHT22;46555;45.620;13.796;2022-07-06T07:35:23;28.40;82.20
35206;DHT22;46555;45.620;13.796;2022-07-06T07:37:48;28.40;83.20
35206;DHT22;46555;45.620;13.796;2022-07-06T07:40:14;28.50;80.30
35206;DHT22;46555;45.620;13.796;2022-07-06T07:42:40;28.60;80.20
35206;DHT22;46555;45.620;13.796;2022-07-06T07:45:07;28.60;81.30
35206;DHT22;46555;45.620;13.796;2022-07-06T07:47:33;28.60;81.40
35206;DHT22;46555;45.620;13.796;2022-07-06T07:49:59;28.70;80.50
35206;DHT22;46555;45.620;13.796;2022-07-06T07:52:25;28.70;80.10
35206;DHT22;46555;45.620;13.796;2022-07-06T07:54:51;28.80;80.20
35206;DHT22;46555;45.620;13.796;2022-07-06T07:57:16;28.80;79.70
35206;DHT22;46555;45.620;13.796;2022-07-06T07:59:42;28.90;79.30
35206;DHT22;46555;45.620;13.796;2022-07-06T08:02:08;29.00;79.30
35206;DHT22;46555;45.620;13.796;2022-07-06T08:04:34;29.10;79.80
35206;DHT22;46555;45.620;13.796;2022-07-06T08:07:00;29.10;79.30
35206;DHT22;46555;45.620;13.796;2022-07-06T08:09:26;29.10;77.10
35206;DHT22;46555;45.620;13.796;2022-07-06T08:11:52;29.10;76.30
35206;DHT22;46555;45.620;13.796;2022-07-06T08:14:17;29.10;75.40
35206;DHT22;46555;45.620;13.796;2022-07-06T08:16:43;29.20;75.30
35206;DHT22;46555;45.620;13.796;2022-07-06T08:19:09;29.20;76.40
35206;DHT22;46555;45.620;13.796;2022-07-06T08:21:35;29.20;76.20
35206;DHT22;46555;45.620;13.796;2022-07-06T08:24:01;29.30;76.10
35206;DHT22;46555;45.620;13.796;2022-07-06T08:26:28;29.30;76.10
35206;DHT22;46555;45.620;13.796;2022-07-06T08:28:55;29.30;75.00
35206;DHT22;46555;45.620;13.796;2022-07-06T08:31:20;29.40;74.10
35206;DHT22;46555;45.620;13.796;2022-07-06T08:33:46;29.50;73.70
35206;DHT22;46555;45.620;13.796;2022-07-06T08:36:13;29.50;74.30
35206;DHT22;46555;45.620;13.796;2022-07-06T08:38:39;29.60;75.10
35206;DHT22;46555;45.620;13.796;2022-07-06T08:41:05;29.60;74.40
35206;DHT22;46555;45.620;13.796;2022-07-06T08:43:33;29.70;73.70
35206;DHT22;46555;45.620;13.796;2022-07-06T08:45:59;29.80;73.90
35206;DHT22;46555;45.620;13.796;2022-07-06T08:48:27;29.80;74.70
35206;DHT22;46555;45.620;13.796;2022-07-06T08:50:57;29.90;74.40
35206;DHT22;46555;45.620;13.796;2022-07-06T08:53:24;29.90;73.30
35206;DHT22;46555;45.620;13.796;2022-07-06T08:55:50;29.90;72.50
35206;DHT22;46555;45.620;13.796;2022-07-06T08:58:16;29.90;72.50
35206;DHT22;46555;45.620;13.796;2022-07-06T09:00:42;30.00;71.40
35206;DHT22;46555;45.620;13.796;2022-07-06T09:03:11;30.00;71.90
35206;DHT22;46555;45.620;13.796;2022-07-06T09:05:39;30.10;72.90
35206;DHT22;46555;45.620;13.796;2022-07-06T09:08:05;30.10;71.70
35206;DHT22;46555;45.620;13.796;2022-07-06T09:10:31;30.20;71.20
35206;DHT22;46555;45.620;13.796;2022-07-06T09:13:05;30.20;69.50
35206;DHT22;46555;45.620;13.796;2022-07-06T09:15:32;30.20;68.80
35206;DHT22;46555;45.620;13.796;2022-07-06T09:17:58;30.20;70.70
35206;DHT22;46555;45.620;13.796;2022-07-06T09:20:24;30.30;70.20
35206;DHT22;46555;45.620;13.796;2022-07-06T09:22:50;30.30;70.30
35206;DHT22;46555;45.620;13.796;2022-07-06T09:25:16;30.30;69.70
35206;DHT22;46555;45.620;13.796;2022-07-06T09:27:46;30.40;69.40
35206;DHT22;46555;45.620;13.796;2022-07-06T09:30:14;30.40;68.50
35206;DHT22;46555;45.620;13.796;2022-07-06T09:32:47;30.40;69.70
35206;DHT22;46555;45.620;13.796;2022-07-06T09:35:39;30.50;68.10
35206;DHT22;46555;45.620;13.796;2022-07-06T09:38:06;30.50;68.00
35206;DHT22;46555;45.620;13.796;2022-07-06T09:40:36;30.60;66.70
35206;DHT22;46555;45.620;13.796;2022-07-06T09:43:09;30.60;67.00
35206;DHT22;46555;45.620;13.796;2022-07-06T09:45:36;30.60;66.80
35206;DHT22;46555;45.620;13.796;2022-07-06T09:48:11;30.70;65.80
35206;DHT22;46555;45.620;13.796;2022-07-06T09:51:04;30.80;63.90
35206;DHT22;46555;45.620;13.796;2022-07-06T09:53:35;30.80;63.90
35206;DHT22;46555;45.620;13.796;2022-07-06T09:56:01;30.80;64.40
35206;DHT22;46555;45.620;13.796;2022-07-06T09:58:27;30.90;65.00
35206;DHT22;46555;45.620;13.796;2022-07-06T10:00:53;31.00;62.80
35206;DHT22;46555;45.620;13.796;2022-07-06T10:03:19;31.00;60.30
35206;DHT22;46555;45.620;13.796;2022-07-06T10:05:46;31.10;61.00
35206;DHT22;46555;45.620;13.796;2022-07-06T10:08:14;31.10;59.90
35206;DHT22;46555;45.620;13.796;2022-07-06T10:10:41;31.20;60.60
35206;DHT22;46555;45.620;13.796;2022-07-06T10:13:08;31.20;62.70
35206;DHT22;46555;45.620;13.796;2022-07-06T10:15:36;31.20;63.50
35206;DHT22;46555;45.620;13.796;2022-07-06T10:18:04;31.30;62.50
35206;DHT22;46555;45.620;13.796;2022-07-06T10:20:36;31.40;62.40
35206;DHT22;46555;45.620;13.796;2022-07-06T10:23:04;31.50;62.50
35206;DHT22;46555;45.620;13.796;2022-07-06T10:25:32;31.50;62.30
35206;DHT22;46555;45.620;13.796;2022-07-06T10:27:59;31.70;62.70
35206;DHT22;46555;45.620;13.796;2022-07-06T10:30:27;31.80;62.00
35206;DHT22;46555;45.620;13.796;2022-07-06T10:32:55;31.90;61.70
35206;DHT22;46555;45.620;13.796;2022-07-06T10:35:21;32.00;61.80
35206;DHT22;46555;45.620;13.796;2022-07-06T10:38:08;32.10;60.20
35206;DHT22;46555;45.620;13.796;2022-07-06T10:40:36;32.00;58.80
35206;DHT22;46555;45.620;13.796;2022-07-06T10:43:20;32.00;58.80
35206;DHT22;46555;45.620;13.796;2022-07-06T10:50:46;32.10;59.30
35206;DHT22;46555;45.620;13.796;2022-07-06T10:53:12;32.20;58.80
35206;DHT22;46555;45.620;13.796;2022-07-06T10:55:46;32.30;58.00
35206;DHT22;46555;45.620;13.796;2022-07-06T10:58:13;32.30;59.40
35206;DHT22;46555;45.620;13.796;2022-07-06T11:00:55;32.50;59.10
35206;DHT22;46555;45.620;13.796;2022-07-06T11:03:44;32.50;58.00
35206;DHT22;46555;45.620;13.796;2022-07-06T11:06:20;32.60;59.30
35206;DHT22;46555;45.620;13.796;2022-07-06T11:09:19;32.70;58.80
35206;DHT22;46555;45.620;13.796;2022-07-06T11:11:42;32.90;58.70
35206;DHT22;46555;45.620;13.796;2022-07-06T11:21:51;33.20;67.70
35206;DHT22;46555;45.620;13.796;2022-07-06T11:24:22;32.60;71.60
35206;DHT22;46555;45.620;13.796;2022-07-06T11:26:49;31.90;70.20
35206;DHT22;46555;45.620;13.796;2022-07-06T11:29:17;31.40;71.30
35206;DHT22;46555;45.620;13.796;2022-07-06T11:31:45;31.20;70.80
35206;DHT22;46555;45.620;13.796;2022-07-06T11:34:13;31.00;73.70
35206;DHT22;46555;45.620;13.796;2022-07-06T11:36:42;30.80;74.30
35206;DHT22;46555;45.620;13.796;2022-07-06T11:39:07;30.60;77.90
35206;DHT22;46555;45.620;13.796;2022-07-06T11:41:34;30.80;82.80
35206;DHT22;46555;45.620;13.796;2022-07-06T11:44:00;30.80;83.80
35206;DHT22;46555;45.620;13.796;2022-07-06T11:46:30;30.70;90.20
35206;DHT22;46555;45.620;13.796;2022-07-06T11:49:02;30.80;92.40
35206;DHT22;46555;45.620;13.796;2022-07-06T11:51:30;31.00;92.90
35206;DHT22;46555;45.620;13.796;2022-07-06T11:53:58;31.20;90.60
35206;DHT22;46555;45.620;13.796;2022-07-06T11:56:26;31.20;85.90
35206;DHT22;46555;45.620;13.796;2022-07-06T11:58:57;31.40;86.70
35206;DHT22;46555;45.620;13.796;2022-07-06T12:01:24;31.50;78.20
35206;DHT22;46555;45.620;13.796;2022-07-06T12:03:51;31.60;80.70
35206;DHT22;46555;45.620;13.796;2022-07-06T12:06:23;31.30;77.80
35206;DHT22;46555;45.620;13.796;2022-07-06T12:08:51;31.50;74.70
35206;DHT22;46555;45.620;13.796;2022-07-06T12:11:30;32.60;70.60
35206;DHT22;46555;45.620;13.796;2022-07-06T12:13:58;33.80;67.50
35206;DHT22;46555;45.620;13.796;2022-07-06T12:16:34;35.10;65.30
35206;DHT22;46555;45.620;13.796;2022-07-06T12:19:04;34.90;65.80
35206;DHT22;46555;45.620;13.796;2022-07-06T12:21:30;34.80;65.10
35206;DHT22;46555;45.620;13.796;2022-07-06T12:23:56;35.40;63.60
35206;DHT22;46555;45.620;13.796;2022-07-06T12:26:24;35.90;62.30
35206;DHT22;46555;45.620;13.796;2022-07-06T12:29:09;36.50;61.70
35206;DHT22;46555;45.620;13.796;2022-07-06T12:31:48;37.30;60.90
35206;DHT22;46555;45.620;13.796;2022-07-06T12:34:19;37.70;61.50
35206;DHT22;46555;45.620;13.796;2022-07-06T12:36:50;37.80;58.80
35206;DHT22;46555;45.620;13.796;2022-07-06T12:39:19;36.60;60.60
35206;DHT22;46555;45.620;13.796;2022-07-06T12:41:56;37.00;63.00
35206;DHT22;46555;45.620;13.796;2022-07-06T12:44:25;37.70;60.40
35206;DHT22;46555;45.620;13.796;2022-07-06T12:47:06;38.20;59.70
35206;DHT22;46555;45.620;13.796;2022-07-06T12:49:32;37.80;59.90
35206;DHT22;46555;45.620;13.796;2022-07-06T12:52:12;37.00;62.60
35206;DHT22;46555;45.620;13.796;2022-07-06T12:54:49;36.30;61.60
35206;DHT22;46555;45.620;13.796;2022-07-06T12:57:20;36.00;61.60
35206;DHT22;46555;45.620;13.796;2022-07-06T12:59:54;35.90;59.30
35206;DHT22;46555;45.620;13.796;2022-07-06T13:02:26;35.90;61.50
35206;DHT22;46555;45.620;13.796;2022-07-06T13:07:25;36.50;62.40
35206;DHT22;46555;45.620;13.796;2022-07-06T13:09:51;37.10;62.20
35206;DHT22;46555;45.620;13.796;2022-07-06T13:12:17;37.40;60.10
35206;DHT22;46555;45.620;13.796;2022-07-06T13:14:42;36.80;59.20
35206;DHT22;46555;45.620;13.796;2022-07-06T13:17:08;36.80;59.60
35206;DHT22;46555;45.620;13.796;2022-07-06T13:19:34;37.40;57.50
35206;DHT22;46555;45.620;13.796;2022-07-06T13:21:59;37.50;58.50
35206;DHT22;46555;45.620;13.796;2022-07-06T13:24:25;38.10;58.10
35206;DHT22;46555;45.620;13.796;2022-07-06T13:26:54;38.90;57.80
35206;DHT22;46555;45.620;13.796;2022-07-06T13:29:20;38.30;58.30
35206;DHT22;46555;45.620;13.796;2022-07-06T13:31:46;38.90;58.20
35206;DHT22;46555;45.620;13.796;2022-07-06T13:34:12;39.70;55.20
35206;DHT22;46555;45.620;13.796;2022-07-06T13:36:39;40.20;56.80
35206;DHT22;46555;45.620;13.796;2022-07-06T13:39:06;40.50;50.10
35206;DHT22;46555;45.620;13.796;2022-07-06T13:41:32;40.90;49.60
35206;DHT22;46555;45.620;13.796;2022-07-06T13:43:59;42.50;50.00
35206;DHT22;46555;45.620;13.796;2022-07-06T13:46:29;44.10;47.50
35206;DHT22;46555;45.620;13.796;2022-07-06T13:48:55;43.10;54.10
35206;DHT22;46555;45.620;13.796;2022-07-06T13:51:22;41.10;55.10
35206;DHT22;46555;45.620;13.796;2022-07-06T13:53:48;40.00;56.10
35206;DHT22;46555;45.620;13.796;2022-07-06T13:56:14;39.30;57.60
35206;DHT22;46555;45.620;13.796;2022-07-06T13:58:40;38.70;58.00
35206;DHT22;46555;45.620;13.796;2022-07-06T14:01:05;37.80;58.00
35206;DHT22;46555;45.620;13.796;2022-07-06T14:03:31;37.70;58.50
35206;DHT22;46555;45.620;13.796;2022-07-06T14:05:58;37.90;59.00
35206;DHT22;46555;45.620;13.796;2022-07-06T14:08:25;37.70;58.90
35206;DHT22;46555;45.620;13.796;2022-07-06T14:10:52;37.80;58.40
35206;DHT22;46555;45.620;13.796;2022-07-06T14:13:19;37.50;55.50
35206;DHT22;46555;45.620;13.796;2022-07-06T14:15:45;36.80;57.00
35206;DHT22;46555;45.620;13.796;2022-07-06T14:18:11;37.80;56.60
35206;DHT22;46555;45.620;13.796;2022-07-06T14:20:37;38.70;55.10
35206;DHT22;46555;45.620;13.796;2022-07-06T14:23:03;38.90;53.10
35206;DHT22;46555;45.620;13.796;2022-07-06T14:25:28;37.60;55.10
35206;DHT22;46555;45.620;13.796;2022-07-06T14:27:54;37.20;55.50
35206;DHT22;46555;45.620;13.796;2022-07-06T14:30:20;36.60;54.40
35206;DHT22;46555;45.620;13.796;2022-07-06T14:32:45;35.90;56.30
35206;DHT22;46555;45.620;13.796;2022-07-06T14:35:12;35.10;57.90
35206;DHT22;46555;45.620;13.796;2022-07-06T14:37:38;34.50;56.80
35206;DHT22;46555;45.620;13.796;2022-07-06T14:40:04;34.30;57.80
35206;DHT22;46555;45.620;13.796;2022-07-06T14:42:30;33.90;58.70
35206;DHT22;46555;45.620;13.796;2022-07-06T14:44:55;34.10;61.20
35206;DHT22;46555;45.620;13.796;2022-07-06T14:47:21;34.80;61.10
35206;DHT22;46555;45.620;13.796;2022-07-06T14:49:47;34.60;62.00
35206;DHT22;46555;45.620;13.796;2022-07-06T14:52:12;34.30;62.70
35206;DHT22;46555;45.620;13.796;2022-07-06T14:54:38;34.00;64.00
35206;DHT22;46555;45.620;13.796;2022-07-06T14:57:04;33.50;64.10
35206;DHT22;46555;45.620;13.796;2022-07-06T14:59:34;32.80;75.00
35206;DHT22;46555;45.620;13.796;2022-07-06T15:02:00;31.80;82.60
35206;DHT22;46555;45.620;13.796;2022-07-06T15:04:26;31.50;91.50
35206;DHT22;46555;45.620;13.796;2022-07-06T15:06:52;31.80;95.20
35206;DHT22;46555;45.620;13.796;2022-07-06T15:09:18;32.20;95.80
35206;DHT22;46555;45.620;13.796;2022-07-06T15:11:44;31.90;98.10
35206;DHT22;46555;45.620;13.796;2022-07-06T15:14:11;32.10;98.20
35206;DHT22;46555;45.620;13.796;2022-07-06T15:16:38;32.40;95.60
35206;DHT22;46555;45.620;13.796;2022-07-06T15:19:04;33.10;88.80
35206;DHT22;46555;45.620;13.796;2022-07-06T15:21:30;33.00;83.30
35206;DHT22;46555;45.620;13.796;2022-07-06T15:23:56;32.70;90.00
35206;DHT22;46555;45.620;13.796;2022-07-06T15:26:22;32.10;91.20
35206;DHT22;46555;45.620;13.796;2022-07-06T15:28:48;31.40;88.40
35206;DHT22;46555;45.620;13.796;2022-07-06T15:31:13;31.40;78.90
35206;DHT22;46555;45.620;13.796;2022-07-06T15:33:39;31.30;79.10